Time;durP1;ratioP1;P1;durP2;ratioP2;P2;SDS_P1;SDS_P2;PMS_P1;PMS_P2;Temp;Humidity;BMP_temperature;BMP_pressure;BME280_temperature;BME280_humidity;BME280_pressure;Samples;Min_cycle;Max_cycle;Signal;HPM_P1;HPM_P2
2022/10/30 00:02:02;;;;;;;13.77;12.48;;;;;;;;;;5002778;28;20029;-80
2022/10/30 00:04:28;;;;;;;14.35;12.07;;;;;;;;;;4986757;28;20395;-79
2022/10/30 00:06:54;;;;;;;13.88;11.75;;;;;;;;;;5003053;28;20061;-80
2022/10/30 00:09:19;;;;;;;13.38;11.95;;;;;;;;;;5000984;28;20033;-81
2022/10/30 00:11:45;;;;;;;13.75;12.20;;;;;;;;;;5002867;28;20457;-79
2022/10/30 00:14:12;;;;;;;13.88;11.18;;;;;;;;;;4986199;28;20033;-79
2022/10/30 00:16:42;;;;;;;10.60;9.60;;;;;;;;;;5003281;28;20379;-80
2022/10/30 00:19:15;;;;;;;12.93;11.60;;;;;;;;;;5018913;28;20037;-81
2022/10/30 00:21:41;;;;;;;11.90;10.70;;;;;;;;;;5016437;28;20380;-80
2022/10/30 00:24:30;;;;;;;12.38;11.05;;;;;;;;;;5002148;28;20056;-80
2022/10/30 00:26:56;;;;;;;12.27;11.05;;;;;;;;;;5019014;28;20035;-80
2022/10/30 00:29:23;;;;;;;11.07;9.95;;;;;;;;;;4984193;28;20032;-80
2022/10/30 00:31:51;;;;;;;12.05;10.82;;;;;;;;;;5002733;28;20070;-80
2022/10/30 00:34:18;;;;;;;10.82;9.65;;;;;;;;;;5002182;28;20436;-79
2022/10/30 00:36:43;;;;;;;12.15;10.68;;;;;;;;;;5035462;28;20420;-80
2022/10/30 00:39:12;;;;;;;12.48;9.52;;;;;;;;;;5002014;28;20037;-80
2022/10/30 00:41:40;;;;;;;11.65;10.45;;;;;;;;;;5001908;28;20565;-81
2022/10/30 00:44:40;;;;;;;10.20;9.10;;;;;;;;;;4985623;28;20079;-81
2022/10/30 00:47:12;;;;;;;13.50;10.05;;;;;;;;;;5027332;28;20425;-81
2022/10/30 00:49:40;;;;;;;10.00;9.00;;;;;;;;;;4986013;28;20403;-81
2022/10/30 00:52:06;;;;;;;10.45;9.43;;;;;;;;;;5018717;28;20029;-80
2022/10/30 00:54:32;;;;;;;13.10;11.48;;;;;;;;;;5018397;28;20040;-80
2022/10/30 00:57:00;;;;;;;12.60;8.95;;;;;;;;;;5001859;28;20103;-80
2022/10/30 00:59:27;;;;;;;14.93;10.13;;;;;;;;;;5019786;28;20037;-80
2022/10/30 01:01:53;;;;;;;12.85;9.93;;;;;;;;;;5003587;28;20059;-81
2022/10/30 01:04:18;;;;;;;11.05;9.85;;;;;;;;;;5018972;28;20068;-81
2022/10/30 01:06:46;;;;;;;11.45;8.93;;;;;;;;;;5018969;28;20064;-80
2022/10/30 01:09:13;;;;;;;9.82;8.80;;;;;;;;;;5017956;28;20079;-81
2022/10/30 01:11:38;;;;;;;11.65;8.90;;;;;;;;;;4982760;28;20030;-80
2022/10/30 01:14:05;;;;;;;10.70;9.57;;;;;;;;;;4983471;28;20037;-80
2022/10/30 01:17:07;;;;;;;10.80;8.68;;;;;;;;;;4983731;28;20033;-80
2022/10/30 01:20:06;;;;;;;9.65;7.32;;;;;;;;;;4999155;28;20491;-81
2022/10/30 01:22:47;;;;;;;8.35;7.45;;;;;;;;;;4974821;28;20045;-81
2022/10/30 01:25:33;;;;;;;9.13;8.23;;;;;;;;;;5015356;28;20137;-81
2022/10/30 01:28:07;;;;;;;9.30;7.10;;;;;;;;;;5014783;28;20022;-80
2022/10/30 01:31:08;;;;;;;10.07;8.23;;;;;;;;;;4983537;28;20053;-80
2022/10/30 01:33:54;;;;;;;10.18;7.60;;;;;;;;;;4999080;28;20060;-81
2022/10/30 01:36:26;;;;;;;8.90;7.72;;;;;;;;;;5032748;28;20034;-81
2022/10/30 01:38:53;;;;;;;8.50;7.53;;;;;;;;;;5015023;28;20029;-81
2022/10/30 01:41:19;;;;;;;10.00;7.90;;;;;;;;;;4982820;28;20491;-80
2022/10/30 01:43:44;;;;;;;9.73;8.23;;;;;;;;;;4982577;28;20067;-80
2022/10/30 01:46:32;;;;;;;8.63;7.82;;;;;;;;;;4979218;28;20442;-80
2022/10/30 01:49:15;;;;;;;10.50;7.05;;;;;;;;;;4995182;28;20112;-80
2022/10/30 01:51:41;;;;;;;10.23;7.50;;;;;;;;;;4995449;28;20045;-80
2022/10/30 01:54:43;;;;;;;9.95;7.35;;;;;;;;;;5012495;28;20041;-81
2022/10/30 01:57:17;;;;;;;8.73;7.57;;;;;;;;;;4978316;28;20041;-80
2022/10/30 01:59:49;;;;;;;8.88;7.47;;;;;;;;;;4978778;28;20369;-80
2022/10/30 02:02:14;;;;;;;8.07;6.50;;;;;;;;;;4963363;28;20384;-81
2022/10/30 02:04:40;;;;;;;9.68;7.68;;;;;;;;;;4963143;28;20092;-81
2022/10/30 02:07:05;;;;;;;11.00;7.43;;;;;;;;;;4977968;28;20053;-81
2022/10/30 02:09:30;;;;;;;8.77;6.95;;;;;;;;;;4966058;28;20060;-81
2022/10/30 02:11:56;;;;;;;8.77;6.80;;;;;;;;;;4998492;28;20037;-80
2022/10/30 02:14:42;;;;;;;11.88;6.75;;;;;;;;;;4982421;28;20033;-81
2022/10/30 02:17:08;;;;;;;9.18;6.88;;;;;;;;;;4982261;28;20037;-80
2022/10/30 02:19:33;;;;;;;8.32;6.57;;;;;;;;;;4982167;28;20037;-80
2022/10/30 02:21:59;;;;;;;9.93;7.05;;;;;;;;;;4981665;28;20048;-81
2022/10/30 02:24:24;;;;;;;11.20;7.07;;;;;;;;;;4981411;28;20056;-80
2022/10/30 02:26:50;;;;;;;8.73;6.38;;;;;;;;;;4997504;28;20038;-80
2022/10/30 02:29:19;;;;;;;8.95;6.40;;;;;;;;;;4965790;28;20034;-81
2022/10/30 02:31:45;;;;;;;7.03;5.95;;;;;;;;;;4997870;28;20438;-80
2022/10/30 02:34:10;;;;;;;9.25;6.80;;;;;;;;;;4981673;28;20083;-80
2022/10/30 02:36:36;;;;;;;9.38;5.80;;;;;;;;;;4981514;28;20130;-80
2022/10/30 02:39:02;;;;;;;7.50;6.40;;;;;;;;;;4997457;28;20388;-81
2022/10/30 02:41:27;;;;;;;7.95;5.75;;;;;;;;;;4981604;28;20041;-80
2022/10/30 02:43:52;;;;;;;7.28;5.75;;;;;;;;;;4997681;28;20026;-81
2022/10/30 02:46:18;;;;;;;9.35;6.53;;;;;;;;;;4978044;28;20076;-81
2022/10/30 02:48:44;;;;;;;7.47;5.75;;;;;;;;;;4978154;28;20661;-81
2022/10/30 02:51:09;;;;;;;8.48;5.78;;;;;;;;;;4978261;28;20370;-81
2022/10/30 02:53:34;;;;;;;8.45;6.55;;;;;;;;;;4961719;28;20472;-80
2022/10/30 02:56:04;;;;;;;6.90;5.60;;;;;;;;;;4977839;28;20041;-81
2022/10/30 02:58:30;;;;;;;7.10;5.45;;;;;;;;;;4994309;28;20056;-81
2022/10/30 03:00:55;;;;;;;7.03;6.05;;;;;;;;;;4961818;28;20489;-80
2022/10/30 03:03:21;;;;;;;7.93;5.78;;;;;;;;;;4961911;28;20042;-81
2022/10/30 03:05:46;;;;;;;7.38;5.80;;;;;;;;;;4961636;28;20392;-80
2022/10/30 03:08:11;;;;;;;7.15;4.90;;;;;;;;;;4960408;28;20557;-80
2022/10/30 03:10:37;;;;;;;6.22;4.60;;;;;;;;;;4989089;28;20557;-80
2022/10/30 03:13:02;;;;;;;6.72;5.55;;;;;;;;;;4996142;28;20361;-80
2022/10/30 03:15:28;;;;;;;6.35;5.00;;;;;;;;;;4980300;28;20435;-80
2022/10/30 03:17:54;;;;;;;6.45;4.75;;;;;;;;;;4996895;28;20438;-80
2022/10/30 03:20:19;;;;;;;8.32;5.53;;;;;;;;;;5001132;28;20029;-81
2022/10/30 03:22:45;;;;;;;7.63;4.70;;;;;;;;;;4968281;28;20402;-81
2022/10/30 03:25:10;;;;;;;8.15;4.88;;;;;;;;;;4984886;28;20053;-81
2022/10/30 03:27:35;;;;;;;7.32;5.35;;;;;;;;;;4984660;28;20364;-81
2022/10/30 03:30:01;;;;;;;6.63;4.68;;;;;;;;;;4985127;28;20395;-80
2022/10/30 03:32:26;;;;;;;5.80;4.55;;;;;;;;;;5001194;28;20391;-80
2022/10/30 03:34:52;;;;;;;7.10;5.00;;;;;;;;;;4985053;28;20033;-80
2022/10/30 03:37:17;;;;;;;6.68;4.38;;;;;;;;;;4984460;28;20372;-80
2022/10/30 03:39:43;;;;;;;9.63;5.88;;;;;;;;;;5001159;28;20037;-81
2022/10/30 03:42:08;;;;;;;6.65;4.80;;;;;;;;;;4984657;28;20029;-80
2022/10/30 03:44:33;;;;;;;6.65;4.53;;;;;;;;;;4984847;28;20372;-80
2022/10/30 03:46:59;;;;;;;7.47;4.88;;;;;;;;;;5000752;28;20398;-80
2022/10/30 03:49:24;;;;;;;7.75;4.65;;;;;;;;;;4984888;28;20387;-80
2022/10/30 03:51:50;;;;;;;6.03;4.25;;;;;;;;;;4984335;28;20047;-80
2022/10/30 03:54:15;;;;;;;7.47;5.25;;;;;;;;;;4984831;28;20129;-81
2022/10/30 03:56:41;;;;;;;6.70;4.75;;;;;;;;;;4999355;28;20032;-80
2022/10/30 03:59:06;;;;;;;5.88;5.03;;;;;;;;;;5000901;28;20104;-81
2022/10/30 04:01:32;;;;;;;5.82;4.30;;;;;;;;;;5000610;28;20431;-80
2022/10/30 04:03:57;;;;;;;7.07;4.65;;;;;;;;;;4984293;28;20435;-81
2022/10/30 04:06:22;;;;;;;7.13;4.40;;;;;;;;;;4984051;28;20373;-80
2022/10/30 04:08:48;;;;;;;7.15;5.00;;;;;;;;;;5000380;28;20120;-80
2022/10/30 04:11:13;;;;;;;7.30;4.40;;;;;;;;;;5000575;28;20037;-80
2022/10/30 04:13:39;;;;;;;7.18;3.90;;;;;;;;;;4984398;28;20365;-80
2022/10/30 04:16:05;;;;;;;7.03;5.20;;;;;;;;;;5000563;28;20105;-81
2022/10/30 04:18:31;;;;;;;6.72;3.83;;;;;;;;;;5000438;28;20053;-80
2022/10/30 04:20:58;;;;;;;7.68;4.68;;;;;;;;;;4967960;28;20036;-80
2022/10/30 04:23:24;;;;;;;5.10;3.63;;;;;;;;;;4983674;28;20041;-81
2022/10/30 04:25:49;;;;;;;6.50;4.18;;;;;;;;;;5000219;28;20484;-81
2022/10/30 04:28:15;;;;;;;8.32;4.18;;;;;;;;;;4999892;28;20048;-81
2022/10/30 04:30:40;;;;;;;8.23;4.03;;;;;;;;;;4983377;28;20080;-80
2022/10/30 04:33:07;;;;;;;4.80;3.90;;;;;;;;;;4983837;28;20033;-80
2022/10/30 04:35:33;;;;;;;6.50;4.25;;;;;;;;;;5000180;28;20104;-81
2022/10/30 04:38:00;;;;;;;5.55;3.72;;;;;;;;;;4999766;28;20040;-81
2022/10/30 04:40:27;;;;;;;6.80;3.70;;;;;;;;;;4984111;28;20104;-81
2022/10/30 04:42:52;;;;;;;5.03;3.75;;;;;;;;;;5000127;28;20439;-80
2022/10/30 04:45:18;;;;;;;6.43;3.50;;;;;;;;;;4999899;28;20065;-81
2022/10/30 04:47:43;;;;;;;6.47;3.80;;;;;;;;;;4980397;28;20029;-81
2022/10/30 04:50:09;;;;;;;5.30;3.97;;;;;;;;;;4964306;28;20080;-81
2022/10/30 04:52:34;;;;;;;5.82;3.90;;;;;;;;;;4980584;28;20046;-80
2022/10/30 04:55:00;;;;;;;7.40;3.85;;;;;;;;;;4980344;28;20038;-81
2022/10/30 04:57:26;;;;;;;6.38;4.18;;;;;;;;;;4964078;28;20037;-81
2022/10/30 04:59:51;;;;;;;7.53;4.60;;;;;;;;;;4980537;28;20052;-80
2022/10/30 05:02:20;;;;;;;5.82;3.90;;;;;;;;;;4963915;28;20074;-81
2022/10/30 05:04:45;;;;;;;6.13;4.15;;;;;;;;;;4964231;28;20037;-80
2022/10/30 05:07:11;;;;;;;5.05;3.63;;;;;;;;;;4979809;28;20042;-80
2022/10/30 05:09:36;;;;;;;5.32;3.53;;;;;;;;;;4984227;28;20055;-80
2022/10/30 05:12:02;;;;;;;4.57;3.50;;;;;;;;;;4983339;28;20159;-81
2022/10/30 05:14:29;;;;;;;4.40;3.58;;;;;;;;;;4999681;28;20021;-80
2022/10/30 05:16:54;;;;;;;7.25;4.25;;;;;;;;;;4983106;28;20041;-80
2022/10/30 05:19:20;;;;;;;6.35;4.82;;;;;;;;;;4999326;28;20037;-80
2022/10/30 05:21:45;;;;;;;6.25;3.97;;;;;;;;;;4966798;28;20108;-81
2022/10/30 05:24:11;;;;;;;6.95;3.92;;;;;;;;;;5015401;28;20048;-80
2022/10/30 05:26:37;;;;;;;4.30;3.63;;;;;;;;;;4999203;28;20060;-80
2022/10/30 05:29:02;;;;;;;4.78;3.33;;;;;;;;;;4966783;28;20037;-80
2022/10/30 05:31:27;;;;;;;6.80;3.70;;;;;;;;;;4973006;28;20069;-81
2022/10/30 05:33:53;;;;;;;6.28;3.40;;;;;;;;;;4963125;28;20092;-80
2022/10/30 05:36:18;;;;;;;5.68;3.42;;;;;;;;;;4963282;28;20431;-80
2022/10/30 05:38:45;;;;;;;6.65;3.38;;;;;;;;;;4963507;28;20420;-81
2022/10/30 05:41:11;;;;;;;6.28;3.35;;;;;;;;;;4963462;28;20048;-80
2022/10/30 05:43:36;;;;;;;4.88;3.60;;;;;;;;;;4995135;28;20033;-81
2022/10/30 05:46:02;;;;;;;5.85;3.40;;;;;;;;;;4987185;28;20518;-80
2022/10/30 05:48:27;;;;;;;4.53;3.22;;;;;;;;;;4982231;28;20041;-80
2022/10/30 05:50:54;;;;;;;5.60;3.80;;;;;;;;;;4998035;28;20041;-80
2022/10/30 05:53:20;;;;;;;4.28;3.40;;;;;;;;;;4981611;28;20061;-81
2022/10/30 05:55:45;;;;;;;5.18;3.50;;;;;;;;;;4981791;28;20049;-80
2022/10/30 05:58:10;;;;;;;4.72;3.13;;;;;;;;;;4997491;28;20094;-81
2022/10/30 06:00:38;;;;;;;6.90;4.05;;;;;;;;;;4982335;28;20052;-80
2022/10/30 06:03:05;;;;;;;7.32;3.47;;;;;;;;;;4998642;28;20032;-80
2022/10/30 06:05:32;;;;;;;5.50;3.25;;;;;;;;;;4982142;28;20079;-80
2022/10/30 06:07:57;;;;;;;5.07;3.30;;;;;;;;;;4982596;28;20030;-80
2022/10/30 06:10:23;;;;;;;5.35;3.30;;;;;;;;;;4998139;28;20491;-81
2022/10/30 06:13:01;;;;;;;4.25;2.75;;;;;;;;;;4981135;28;20037;-81
2022/10/30 06:15:27;;;;;;;6.07;4.13;;;;;;;;;;4983877;28;20039;-81
2022/10/30 06:17:53;;;;;;;6.25;3.92;;;;;;;;;;4998239;28;20030;-81
2022/10/30 06:20:19;;;;;;;4.22;3.20;;;;;;;;;;4981994;28;20034;-80
2022/10/30 06:22:54;;;;;;;4.65;3.10;;;;;;;;;;4998271;28;20025;-81
2022/10/30 06:25:20;;;;;;;4.50;3.53;;;;;;;;;;4981652;28;20387;-81
2022/10/30 06:27:45;;;;;;;4.25;2.38;;;;;;;;;;4965128;28;20030;-80
2022/10/30 06:30:11;;;;;;;5.72;3.35;;;;;;;;;;4997932;28;20096;-79
2022/10/30 06:32:36;;;;;;;5.13;3.00;;;;;;;;;;5014023;28;20037;-81
2022/10/30 06:35:02;;;;;;;6.07;3.28;;;;;;;;;;4997487;28;20038;-80
2022/10/30 06:37:27;;;;;;;5.50;2.80;;;;;;;;;;4998039;28;20369;-81
2022/10/30 06:39:53;;;;;;;5.63;3.28;;;;;;;;;;4982019;28;20025;-81
2022/10/30 06:42:19;;;;;;;6.72;3.58;;;;;;;;;;4997479;28;20115;-81
2022/10/30 06:44:44;;;;;;;5.53;3.22;;;;;;;;;;4997657;28;20391;-80
2022/10/30 06:47:09;;;;;;;3.88;2.75;;;;;;;;;;4993834;28;20472;-81
2022/10/30 06:49:35;;;;;;;4.90;3.10;;;;;;;;;;4978709;28;20038;-81
2022/10/30 06:52:01;;;;;;;4.60;3.03;;;;;;;;;;4994087;28;20087;-81
2022/10/30 06:54:26;;;;;;;7.95;3.60;;;;;;;;;;4993895;28;20493;-79
2022/10/30 06:56:52;;;;;;;4.90;2.53;;;;;;;;;;4994134;28;20041;-80
2022/10/30 06:59:17;;;;;;;4.55;3.22;;;;;;;;;;4961912;28;20357;-80
2022/10/30 07:01:43;;;;;;;6.45;3.38;;;;;;;;;;4977945;28;20474;-80
2022/10/30 07:04:09;;;;;;;8.55;3.53;;;;;;;;;;4962131;28;20046;-80
2022/10/30 07:06:35;;;;;;;12.10;4.43;;;;;;;;;;4977851;28;20132;-81
2022/10/30 07:09:01;;;;;;;6.38;3.03;;;;;;;;;;4994077;28;20374;-80
2022/10/30 07:11:26;;;;;;;6.15;3.38;;;;;;;;;;4997511;28;20387;-80
2022/10/30 07:13:52;;;;;;;6.07;3.22;;;;;;;;;;4997656;28;20112;-84
2022/10/30 07:16:17;;;;;;;10.10;3.40;;;;;;;;;;4997448;28;20087;-85
2022/10/30 07:18:42;;;;;;;7.38;3.80;;;;;;;;;;4982397;28;20454;-84
2022/10/30 07:21:08;;;;;;;9.07;3.65;;;;;;;;;;4981214;28;20434;-85
2022/10/30 07:23:33;;;;;;;6.95;3.42;;;;;;;;;;4998241;28;20454;-84
2022/10/30 07:25:59;;;;;;;10.35;3.90;;;;;;;;;;4983216;28;20393;-85
2022/10/30 07:28:25;;;;;;;11.70;4.00;;;;;;;;;;4967387;28;20087;-85
2022/10/30 07:30:51;;;;;;;6.05;3.10;;;;;;;;;;4984198;28;20038;-85
2022/10/30 07:33:16;;;;;;;8.65;3.13;;;;;;;;;;4980770;28;20025;-85
2022/10/30 07:35:41;;;;;;;8.18;3.75;;;;;;;;;;5013918;28;20030;-81
2022/10/30 07:38:10;;;;;;;8.07;3.33;;;;;;;;;;5013455;28;20461;-82
2022/10/30 07:40:35;;;;;;;8.23;4.10;;;;;;;;;;4997293;28;20498;-81
2022/10/30 07:43:02;;;;;;;7.20;4.03;;;;;;;;;;5013611;28;20033;-82
2022/10/30 07:45:27;;;;;;;11.95;4.70;;;;;;;;;;4997240;28;20017;-81
2022/10/30 07:47:53;;;;;;;8.48;4.00;;;;;;;;;;4979093;28;20045;-81
2022/10/30 07:50:18;;;;;;;9.73;4.95;;;;;;;;;;4978398;28;20029;-81
2022/10/30 07:52:44;;;;;;;7.50;4.22;;;;;;;;;;4977808;28;20125;-81
2022/10/30 07:55:11;;;;;;;6.88;3.83;;;;;;;;;;4993906;28;20038;-81
2022/10/30 07:57:38;;;;;;;8.30;3.65;;;;;;;;;;4977181;28;20089;-81
2022/10/30 08:00:08;;;;;;;8.63;3.35;;;;;;;;;;4961534;28;20029;-82
2022/10/30 08:02:34;;;;;;;8.48;4.43;;;;;;;;;;4977443;28;20057;-82
2022/10/30 08:04:59;;;;;;;6.47;4.22;;;;;;;;;;4977971;28;20069;-82
2022/10/30 08:07:30;;;;;;;10.90;4.05;;;;;;;;;;4981564;28;20480;-82
2022/10/30 08:09:55;;;;;;;9.35;4.00;;;;;;;;;;4972252;28;20039;-82
2022/10/30 08:12:20;;;;;;;9.52;4.07;;;;;;;;;;4983911;28;20423;-81
2022/10/30 08:14:48;;;;;;;10.27;4.22;;;;;;;;;;5001177;28;20029;-82
2022/10/30 08:17:14;;;;;;;11.65;3.72;;;;;;;;;;4984749;28;20474;-81
2022/10/30 08:19:40;;;;;;;11.45;3.80;;;;;;;;;;4968289;28;20088;-82
2022/10/30 08:22:05;;;;;;;8.52;4.07;;;;;;;;;;5000297;28;20047;-81
2022/10/30 08:24:31;;;;;;;8.18;3.92;;;;;;;;;;4983968;28;20391;-83
2022/10/30 08:26:57;;;;;;;9.85;3.85;;;;;;;;;;5013922;28;20048;-82
2022/10/30 08:29:22;;;;;;;11.23;4.65;;;;;;;;;;4984868;28;20025;-82
2022/10/30 08:31:48;;;;;;;7.28;3.55;;;;;;;;;;5000408;28;20042;-82
2022/10/30 08:34:14;;;;;;;10.77;3.60;;;;;;;;;;4967659;28;20068;-82
2022/10/30 08:36:39;;;;;;;8.38;3.70;;;;;;;;;;4983834;28;20092;-83
2022/10/30 08:39:05;;;;;;;12.48;4.30;;;;;;;;;;4967771;28;20375;-82
2022/10/30 08:41:30;;;;;;;7.57;3.42;;;;;;;;;;4983290;28;20408;-81
2022/10/30 08:43:55;;;;;;;10.13;3.42;;;;;;;;;;4983855;28;20378;-82
2022/10/30 08:46:21;;;;;;;11.65;4.13;;;;;;;;;;5000192;28;20035;-82
2022/10/30 08:48:47;;;;;;;7.90;3.72;;;;;;;;;;5000115;28;20064;-83
2022/10/30 08:51:12;;;;;;;6.75;3.28;;;;;;;;;;4983552;28;20042;-81
2022/10/30 08:53:37;;;;;;;9.25;3.50;;;;;;;;;;4999929;28;20033;-82
2022/10/30 08:56:04;;;;;;;10.18;3.83;;;;;;;;;;4967605;28;20132;-82
2022/10/30 08:58:31;;;;;;;10.27;3.83;;;;;;;;;;4983951;28;20044;-82
2022/10/30 09:00:57;;;;;;;6.85;3.17;;;;;;;;;;4983923;28;20033;-83
2022/10/30 09:03:22;;;;;;;9.80;4.00;;;;;;;;;;4984065;28;20410;-82
2022/10/30 09:05:48;;;;;;;8.27;3.45;;;;;;;;;;4984362;28;20038;-81
2022/10/30 09:08:17;;;;;;;8.45;3.00;;;;;;;;;;5003229;28;20079;-82
2022/10/30 09:10:43;;;;;;;6.28;3.70;;;;;;;;;;4983491;28;20024;-82
2022/10/30 09:13:10;;;;;;;12.20;3.38;;;;;;;;;;5002792;28;20087;-82
2022/10/30 09:15:35;;;;;;;8.02;3.53;;;;;;;;;;5018012;28;20037;-83
2022/10/30 09:18:01;;;;;;;19.17;4.13;;;;;;;;;;5017549;28;20087;-83
2022/10/30 09:20:27;;;;;;;7.80;3.40;;;;;;;;;;5017734;28;20034;-83
2022/10/30 09:22:56;;;;;;;7.43;3.38;;;;;;;;;;5001247;28;20020;-81
2022/10/30 09:25:22;;;;;;;6.20;3.58;;;;;;;;;;4985266;28;20044;-81
2022/10/30 09:27:47;;;;;;;8.60;3.42;;;;;;;;;;5001466;28;20048;-83
2022/10/30 09:30:13;;;;;;;7.18;3.58;;;;;;;;;;5017952;28;20491;-82
2022/10/30 09:32:38;;;;;;;9.27;3.88;;;;;;;;;;5018900;28;20036;-83
2022/10/30 09:35:12;;;;;;;7.68;4.00;;;;;;;;;;5022856;28;20467;-82
2022/10/30 09:37:41;;;;;;;6.88;3.10;;;;;;;;;;5023224;28;20391;-83
2022/10/30 09:40:17;;;;;;;9.75;3.78;;;;;;;;;;4987735;28;20033;-81
2022/10/30 09:42:43;;;;;;;7.45;2.90;;;;;;;;;;5000584;28;20487;-82
2022/10/30 09:45:27;;;;;;;9.07;3.42;;;;;;;;;;5001806;28;20120;-82
2022/10/30 09:48:14;;;;;;;7.55;3.70;;;;;;;;;;5016593;28;20029;-82
2022/10/30 09:50:53;;;;;;;6.70;3.55;;;;;;;;;;5014815;28;20548;-82
2022/10/30 09:53:29;;;;;;;11.50;4.00;;;;;;;;;;4998971;28;20034;-83
2022/10/30 09:56:13;;;;;;;7.35;3.40;;;;;;;;;;4998492;28;20458;-84
2022/10/30 09:59:16;;;;;;;7.20;3.42;;;;;;;;;;4998173;28;20387;-83
2022/10/30 10:02:11;;;;;;;13.05;3.95;;;;;;;;;;4998172;28;20026;-84
2022/10/30 10:04:43;;;;;;;8.00;3.17;;;;;;;;;;5006537;28;20137;-83
2022/10/30 10:07:46;;;;;;;10.98;3.58;;;;;;;;;;4997187;28;20433;-83
2022/10/30 10:10:37;;;;;;;13.63;5.13;;;;;;;;;;4998970;28;20488;-83
2022/10/30 10:13:12;;;;;;;9.45;4.47;;;;;;;;;;5015787;28;20033;-82
2022/10/30 10:15:50;;;;;;;8.88;3.85;;;;;;;;;;5017582;28;20016;-82
2022/10/30 10:18:39;;;;;;;11.32;4.10;;;;;;;;;;5003856;28;20471;-83
2022/10/30 10:21:25;;;;;;;6.95;3.75;;;;;;;;;;5005898;28;20118;-82
2022/10/30 10:23:53;;;;;;;8.07;3.72;;;;;;;;;;4994033;28;20029;-83
2022/10/30 10:26:22;;;;;;;13.15;4.10;;;;;;;;;;5017242;28;20041;-84
2022/10/30 10:28:59;;;;;;;7.80;3.78;;;;;;;;;;4986834;28;20055;-84
2022/10/30 10:31:55;;;;;;;8.00;3.33;;;;;;;;;;4966501;28;20034;-83
2022/10/30 10:34:48;;;;;;;11.25;3.53;;;;;;;;;;5012584;28;20124;-83
2022/10/30 10:37:27;;;;;;;9.10;3.33;;;;;;;;;;4980391;28;20036;-83
2022/10/30 10:40:02;;;;;;;10.90;3.50;;;;;;;;;;5000271;28;20045;-83
2022/10/30 10:42:32;;;;;;;7.38;4.28;;;;;;;;;;4981758;28;20496;-83
2022/10/30 10:45:24;;;;;;;6.68;3.40;;;;;;;;;;4977170;28;20038;-82
2022/10/30 10:47:53;;;;;;;9.73;3.40;;;;;;;;;;4989378;28;20037;-84
2022/10/30 10:50:24;;;;;;;7.25;3.63;;;;;;;;;;4977837;28;20117;-83
2022/10/30 10:52:56;;;;;;;12.10;4.10;;;;;;;;;;4961911;28;20026;-83
2022/10/30 10:55:24;;;;;;;11.45;4.30;;;;;;;;;;4962753;28;20034;-82
2022/10/30 10:57:49;;;;;;;12.15;3.85;;;;;;;;;;5008018;28;20036;-83
2022/10/30 11:00:17;;;;;;;9.57;4.05;;;;;;;;;;4981594;28;20069;-83
2022/10/30 11:02:51;;;;;;;11.05;3.75;;;;;;;;;;4965205;28;20036;-83
2022/10/30 11:05:32;;;;;;;7.20;3.53;;;;;;;;;;4981529;28;20048;-82
2022/10/30 11:08:10;;;;;;;8.88;3.75;;;;;;;;;;4997281;28;20029;-83
2022/10/30 11:10:36;;;;;;;11.98;3.40;;;;;;;;;;4997530;28;20037;-81
2022/10/30 11:13:02;;;;;;;7.72;4.03;;;;;;;;;;4981302;28;20021;-82
2022/10/30 11:15:46;;;;;;;11.27;3.67;;;;;;;;;;4985025;28;20041;-81
2022/10/30 11:18:14;;;;;;;9.23;3.88;;;;;;;;;;5017122;28;20505;-81
2022/10/30 11:20:46;;;;;;;9.38;3.78;;;;;;;;;;5018174;28;20103;-82
2022/10/30 11:23:34;;;;;;;12.27;4.03;;;;;;;;;;5000206;28;20047;-81
2022/10/30 11:26:00;;;;;;;14.18;4.13;;;;;;;;;;5017033;28;20033;-81
2022/10/30 11:28:56;;;;;;;9.75;3.40;;;;;;;;;;5005388;28;20045;-81
2022/10/30 11:31:33;;;;;;;8.82;3.10;;;;;;;;;;4990371;28;20076;-81
2022/10/30 11:34:11;;;;;;;9.00;3.70;;;;;;;;;;4996559;28;20053;-81
2022/10/30 11:36:37;;;;;;;11.93;3.47;;;;;;;;;;4976316;28;20041;-81
2022/10/30 11:39:08;;;;;;;9.40;3.83;;;;;;;;;;4978195;28;20493;-81
2022/10/30 11:41:34;;;;;;;9.20;3.05;;;;;;;;;;4997618;28;20492;-81
2022/10/30 11:43:59;;;;;;;9.07;4.10;;;;;;;;;;4997796;28;20096;-81
2022/10/30 11:46:25;;;;;;;10.55;3.42;;;;;;;;;;5017432;28;20399;-81
2022/10/30 11:48:53;;;;;;;14.38;3.97;;;;;;;;;;4984864;28;20376;-81
2022/10/30 11:51:39;;;;;;;8.90;3.78;;;;;;;;;;4985127;28;20036;-81
2022/10/30 11:54:04;;;;;;;9.98;3.42;;;;;;;;;;5000641;28;20095;-81
2022/10/30 11:56:30;;;;;;;9.25;3.88;;;;;;;;;;4984883;28;20427;-81
2022/10/30 11:58:57;;;;;;;6.22;3.88;;;;;;;;;;5000921;28;20089;-81
2022/10/30 12:01:26;;;;;;;7.30;3.10;;;;;;;;;;4985228;28;20037;-81
2022/10/30 12:03:52;;;;;;;10.13;3.47;;;;;;;;;;4983973;28;20060;-81
2022/10/30 12:06:21;;;;;;;8.52;3.83;;;;;;;;;;5000815;28;20021;-81
2022/10/30 12:09:01;;;;;;;6.68;2.75;;;;;;;;;;5017169;28;20510;-81
2022/10/30 12:11:31;;;;;;;5.00;3.05;;;;;;;;;;5000316;28;20053;-81
2022/10/30 12:13:57;;;;;;;11.57;3.45;;;;;;;;;;4984403;28;20029;-81
2022/10/30 12:16:22;;;;;;;7.78;3.72;;;;;;;;;;4984342;28;20117;-81
2022/10/30 12:19:05;;;;;;;11.13;3.72;;;;;;;;;;5000043;28;20080;-81
2022/10/30 12:21:35;;;;;;;6.15;3.20;;;;;;;;;;4984492;28;20025;-81
2022/10/30 12:24:05;;;;;;;6.97;3.72;;;;;;;;;;4984115;28;20047;-81
2022/10/30 12:26:31;;;;;;;5.97;3.22;;;;;;;;;;4968620;28;20137;-81
2022/10/30 12:28:59;;;;;;;4.65;2.67;;;;;;;;;;4982828;28;20029;-81
2022/10/30 12:31:30;;;;;;;6.43;3.10;;;;;;;;;;4997281;28;20124;-81
2022/10/30 12:34:31;;;;;;;6.03;2.78;;;;;;;;;;4996643;28;20152;-81
2022/10/30 12:37:15;;;;;;;6.88;2.70;;;;;;;;;;4976207;28;20037;-81
2022/10/30 12:39:45;;;;;;;6.85;2.97;;;;;;;;;;4996781;28;20505;-82
2022/10/30 12:42:13;;;;;;;8.52;3.08;;;;;;;;;;4996708;28;20042;-82
2022/10/30 12:44:42;;;;;;;6.13;2.65;;;;;;;;;;4996415;28;20116;-81
2022/10/30 12:47:16;;;;;;;4.10;2.95;;;;;;;;;;4992575;28;20025;-82
2022/10/30 12:49:48;;;;;;;5.63;3.63;;;;;;;;;;4984068;28;20029;-81
2022/10/30 12:52:32;;;;;;;5.72;2.95;;;;;;;;;;4984099;28;20033;-81
2022/10/30 12:55:01;;;;;;;7.70;3.17;;;;;;;;;;5015879;28;20563;-81
2022/10/30 12:57:30;;;;;;;7.07;3.33;;;;;;;;;;4983745;28;20034;-81
2022/10/30 13:00:15;;;;;;;6.10;3.03;;;;;;;;;;5000251;28;20053;-81
2022/10/30 13:02:51;;;;;;;4.97;2.65;;;;;;;;;;4983499;28;20538;-81
2022/10/30 13:05:24;;;;;;;6.85;2.78;;;;;;;;;;5015823;28;20387;-82
2022/10/30 13:08:28;;;;;;;6.10;2.95;;;;;;;;;;4999859;28;20037;-81
2022/10/30 13:11:03;;;;;;;9.05;3.20;;;;;;;;;;5012735;28;20045;-81
2022/10/30 13:13:34;;;;;;;6.40;2.55;;;;;;;;;;5033410;28;20104;-81
2022/10/30 13:16:01;;;;;;;4.80;2.22;;;;;;;;;;4999881;28;20040;-81
2022/10/30 13:18:28;;;;;;;9.00;2.65;;;;;;;;;;4983525;28;20506;-81
2022/10/30 13:21:09;;;;;;;7.80;3.03;;;;;;;;;;4983582;28;20032;-80
2022/10/30 13:23:39;;;;;;;7.32;2.88;;;;;;;;;;4995282;28;20040;-81
2022/10/30 13:26:46;;;;;;;4.43;2.63;;;;;;;;;;4996017;28;20072;-81
2022/10/30 13:29:32;;;;;;;6.25;2.67;;;;;;;;;;4989132;28;20085;-81
2022/10/30 13:32:16;;;;;;;4.03;2.10;;;;;;;;;;5001309;28;20045;-81
2022/10/30 13:34:49;;;;;;;5.57;2.30;;;;;;;;;;5033207;28;20029;-81
2022/10/30 13:37:38;;;;;;;5.47;2.30;;;;;;;;;;4982877;28;20025;-82
2022/10/30 13:40:15;;;;;;;8.05;3.20;;;;;;;;;;4982882;28;20034;-81
2022/10/30 13:42:49;;;;;;;5.13;2.53;;;;;;;;;;4998779;28;20033;-81
2022/10/30 13:45:20;;;;;;;4.82;2.17;;;;;;;;;;4998677;28;20109;-81
2022/10/30 13:48:01;;;;;;;5.07;2.20;;;;;;;;;;5014593;28;20040;-81
2022/10/30 13:51:05;;;;;;;5.75;3.25;;;;;;;;;;5015220;28;20029;-81
2022/10/30 13:53:31;;;;;;;5.97;2.60;;;;;;;;;;4985427;28;20030;-82
2022/10/30 13:55:56;;;;;;;6.20;2.75;;;;;;;;;;4982679;28;20046;-81
2022/10/30 13:58:42;;;;;;;5.75;2.83;;;;;;;;;;4982221;28;20553;-82
2022/10/30 14:01:16;;;;;;;5.30;2.33;;;;;;;;;;4968146;28;20455;-81
2022/10/30 14:04:03;;;;;;;4.35;2.40;;;;;;;;;;4982009;28;20118;-81
2022/10/30 14:06:56;;;;;;;3.80;2.35;;;;;;;;;;4998091;28;20037;-81
2022/10/30 14:09:42;;;;;;;4.82;2.65;;;;;;;;;;5014963;28;20107;-82
2022/10/30 14:12:45;;;;;;;6.88;2.40;;;;;;;;;;4982272;28;20483;-81
2022/10/30 14:15:28;;;;;;;5.70;2.15;;;;;;;;;;4997542;28;20021;-81
2022/10/30 14:18:12;;;;;;;5.03;1.88;;;;;;;;;;4998319;28;20025;-82
2022/10/30 14:20:37;;;;;;;4.70;1.92;;;;;;;;;;4998085;28;20074;-81
2022/10/30 14:23:19;;;;;;;3.95;2.67;;;;;;;;;;4998117;28;20037;-81
2022/10/30 14:26:07;;;;;;;5.22;2.47;;;;;;;;;;4982575;28;20038;-81
2022/10/30 14:28:36;;;;;;;4.13;2.28;;;;;;;;;;4998331;28;20485;-81
2022/10/30 14:31:09;;;;;;;4.45;2.15;;;;;;;;;;4981630;28;20029;-81
2022/10/30 14:33:41;;;;;;;4.18;2.47;;;;;;;;;;5014376;28;20036;-81
2022/10/30 14:36:20;;;;;;;4.35;1.98;;;;;;;;;;4998301;28;20057;-81
2022/10/30 14:39:20;;;;;;;5.22;2.60;;;;;;;;;;5014022;28;20029;-81
2022/10/30 14:42:04;;;;;;;4.93;2.58;;;;;;;;;;5000858;28;20518;-81
2022/10/30 14:44:55;;;;;;;5.60;2.03;;;;;;;;;;4997365;28;20471;-82
2022/10/30 14:47:36;;;;;;;5.88;2.78;;;;;;;;;;4994482;28;20045;-81
2022/10/30 14:50:24;;;;;;;6.55;2.38;;;;;;;;;;4994826;28;20587;-82
2022/10/30 14:53:02;;;;;;;4.97;2.53;;;;;;;;;;4978302;28;20053;-81
2022/10/30 14:55:31;;;;;;;6.00;2.70;;;;;;;;;;4994238;28;20038;-82
2022/10/30 14:58:00;;;;;;;4.88;2.13;;;;;;;;;;4994432;28;20038;-81
2022/10/30 15:00:25;;;;;;;4.90;1.90;;;;;;;;;;4994604;28;20038;-81
2022/10/30 15:03:26;;;;;;;7.00;2.42;;;;;;;;;;5030485;28;20133;-81